Time;durP1;ratioP1;P1;durP2;ratioP2;P2;SDS_P1;SDS_P2;PMS_P1;PMS_P2;Temp;Humidity;BMP_temperature;BMP_pressure;BME280_temperature;BME280_humidity;BME280_pressure;Samples;Min_cycle;Max_cycle;Signal;HPM_P1;HPM_P2
2023/10/13 00:00:57;;;;;;;57.25;37.97;;;20.70;99.90;;;;;;5032073;28;20492;-69
2023/10/13 00:04:02;;;;;;;56.55;38.47;;;20.50;99.90;;;;;;5031841;28;20064;-70
2023/10/13 00:07:09;;;;;;;55.75;38.03;;;21.10;99.90;;;;;;5031716;28;20057;-67
2023/10/13 00:10:13;;;;;;;59.03;38.67;;;20.60;99.90;;;;;;5031370;28;20052;-68
2023/10/13 00:13:18;;;;;;;55.50;37.90;;;20.50;99.90;;;;;;5031238;28;20057;-68
2023/10/13 00:16:27;;;;;;;52.35;38.00;;;20.60;99.90;;;;;;5031512;28;20041;-68
2023/10/13 00:19:45;;;;;;;55.83;37.33;;;20.50;99.90;;;;;;5031765;28;20052;-67
2023/10/13 00:22:49;;;;;;;55.38;37.13;;;20.50;99.90;;;;;;5031613;28;20531;-68
2023/10/13 00:25:56;;;;;;;56.08;38.20;;;20.40;99.90;;;;;;5031443;28;20096;-68
2023/10/13 00:29:09;;;;;;;47.70;35.50;;;20.50;99.90;;;;;;5031505;28;20048;-68
2023/10/13 00:32:16;;;;;;;57.75;36.75;;;20.40;99.90;;;;;;5030119;28;20044;-68
2023/10/13 00:38:56;;;;;;;50.17;35.55;;;20.50;99.90;;;;;;5031125;28;20068;-68
2023/10/13 00:42:06;;;;;;;54.22;36.30;;;20.50;99.90;;;;;;5030843;28;20399;-68
2023/10/13 00:45:16;;;;;;;64.40;36.80;;;20.50;99.90;;;;;;5031151;28;20512;-68
2023/10/13 00:48:33;;;;;;;57.53;36.08;;;20.60;99.90;;;;;;5030859;28;20790;-68
2023/10/13 00:51:47;;;;;;;53.25;36.85;;;20.70;99.90;;;;;;5030678;28;20064;-68
2023/10/13 00:54:53;;;;;;;54.58;38.42;;;20.70;99.90;;;;;;5030916;28;20056;-68
2023/10/13 00:58:03;;;;;;;58.20;39.03;;;20.70;99.90;;;;;;5018245;28;20070;-69
2023/10/13 01:01:21;;;;;;;55.40;37.67;;;20.80;99.90;;;;;;5031076;28;20048;-70
2023/10/13 01:04:28;;;;;;;59.60;37.67;;;20.80;99.90;;;;;;5030903;28;20064;-70
2023/10/13 01:07:32;;;;;;;56.03;38.08;;;20.80;99.90;;;;;;5030815;28;20041;-69
2023/10/13 01:10:37;;;;;;;58.00;39.45;;;20.90;99.90;;;;;;5030644;28;20068;-70
2023/10/13 01:13:41;;;;;;;61.20;38.10;;;20.90;99.90;;;;;;5029631;28;20060;-69
2023/10/13 01:16:46;;;;;;;61.13;38.30;;;21.00;99.90;;;;;;5030950;28;20044;-70
2023/10/13 01:19:50;;;;;;;61.45;39.97;;;20.90;99.90;;;;;;5030023;28;20052;-69
2023/10/13 01:22:56;;;;;;;56.22;39.40;;;20.90;99.90;;;;;;5030341;28;20069;-69
2023/10/13 01:26:05;;;;;;;54.83;38.13;;;21.00;99.90;;;;;;5030588;28;20504;-69
2023/10/13 01:29:13;;;;;;;59.67;40.20;;;21.00;99.90;;;;;;5029889;28;20040;-69
2023/10/13 01:32:21;;;;;;;55.13;37.38;;;21.00;99.90;;;;;;5029433;28;20052;-69
2023/10/13 01:35:47;;;;;;;51.03;38.15;;;21.00;99.90;;;;;;5029766;28;20504;-70
2023/10/13 01:38:53;;;;;;;58.85;38.03;;;21.00;99.90;;;;;;5030957;28;20048;-69
2023/10/13 01:41:57;;;;;;;57.80;39.47;;;21.00;99.90;;;;;;5029727;28;20037;-69
2023/10/13 01:45:05;;;;;;;56.35;36.40;;;21.00;99.90;;;;;;5029535;28;20048;-70
2023/10/13 01:48:09;;;;;;;55.60;38.15;;;21.10;99.90;;;;;;5030761;28;20062;-69
2023/10/13 01:51:13;;;;;;;59.58;38.15;;;21.10;99.90;;;;;;5030406;28;20056;-70
2023/10/13 01:54:18;;;;;;;59.88;38.42;;;21.10;99.90;;;;;;5030671;28;20044;-69
2023/10/13 01:57:24;;;;;;;57.67;37.63;;;21.10;99.90;;;;;;5029478;28;20049;-70
2023/10/13 02:00:31;;;;;;;49.78;37.15;;;21.10;99.90;;;;;;5029523;28;20406;-69
2023/10/13 02:03:36;;;;;;;51.63;37.30;;;21.10;99.90;;;;;;5030371;28;20052;-70
2023/10/13 02:06:40;;;;;;;53.75;39.05;;;21.00;99.90;;;;;;5029570;28;20044;-69
2023/10/13 02:09:44;;;;;;;50.40;36.45;;;21.00;99.90;;;;;;5031791;28;20048;-69
2023/10/13 02:12:48;;;;;;;57.05;38.67;;;21.00;99.90;;;;;;5032652;28;20052;-69
2023/10/13 02:15:57;;;;;;;60.08;39.63;;;20.90;99.90;;;;;;5033661;28;20060;-69
2023/10/13 02:19:05;;;;;;;55.05;37.63;;;20.70;99.90;;;;;;5032938;28;20488;-69
2023/10/13 02:22:10;;;;;;;55.40;39.83;;;20.70;99.90;;;;;;5033000;28;20508;-69
2023/10/13 02:25:42;;;;;;;59.47;38.25;;;20.70;99.90;;;;;;5033808;28;20465;-69
2023/10/13 02:28:51;;;;;;;57.70;38.45;;;20.70;99.90;;;;;;5032983;28;20413;-70
2023/10/13 02:31:55;;;;;;;55.17;37.45;;;20.70;99.90;;;;;;5033206;28;20421;-69
2023/10/13 02:35:06;;;;;;;53.22;38.33;;;21.30;99.90;;;;;;5033655;28;20048;-69
2023/10/13 02:38:12;;;;;;;56.20;38.33;;;20.80;99.90;;;;;;5033389;28;20508;-69
2023/10/13 02:41:26;;;;;;;59.22;39.72;;;20.70;99.90;;;;;;5033097;28;20040;-69
2023/10/13 02:44:31;;;;;;;57.20;38.03;;;20.80;99.90;;;;;;5033358;28;20543;-69
2023/10/13 02:47:35;;;;;;;62.58;39.63;;;20.60;99.90;;;;;;5033305;28;20060;-70
2023/10/13 02:50:43;;;;;;;57.60;37.75;;;20.70;99.90;;;;;;5033176;28;20065;-70
2023/10/13 02:53:52;;;;;;;50.88;36.63;;;20.70;99.90;;;;;;5033373;28;20056;-70
2023/10/13 02:57:03;;;;;;;54.08;38.50;;;20.80;99.90;;;;;;5033324;28;20045;-70
2023/10/13 03:00:15;;;;;;;58.67;39.47;;;20.70;99.90;;;;;;5032162;28;20076;-69
2023/10/13 03:03:20;;;;;;;54.22;38.05;;;20.80;99.90;;;;;;5032183;28;20044;-69
2023/10/13 03:06:32;;;;;;;55.47;37.83;;;20.80;99.90;;;;;;5032988;28;20044;-68
2023/10/13 03:09:37;;;;;;;57.55;38.38;;;20.70;99.90;;;;;;5031920;28;20504;-69
2023/10/13 03:12:41;;;;;;;64.43;39.25;;;20.70;99.90;;;;;;5032399;28;20060;-68
2023/10/13 03:15:47;;;;;;;57.85;40.38;;;20.70;99.90;;;;;;5032671;28;20040;-68
2023/10/13 03:18:53;;;;;;;55.38;38.30;;;20.70;99.90;;;;;;5032907;28;20527;-69
2023/10/13 03:22:06;;;;;;;59.40;38.90;;;20.70;99.90;;;;;;5031804;28;20056;-68
2023/10/13 03:25:17;;;;;;;59.47;41.13;;;20.70;99.90;;;;;;5031998;28;20052;-69
2023/10/13 03:28:25;;;;;;;;;;;20.70;99.90;;;;;;5032126;28;20048;-69
2023/10/13 03:31:30;;;;;;;59.63;37.70;;;20.70;99.90;;;;;;5032195;28;19917;-69
2023/10/13 03:34:39;;;;;;;51.05;37.85;;;20.70;99.90;;;;;;5032649;28;20040;-69
2023/10/13 03:37:44;;;;;;;56.83;38.35;;;20.70;99.90;;;;;;5032478;28;20052;-69
2023/10/13 03:41:06;;;;;;;51.60;37.60;;;20.80;99.90;;;;;;5032127;28;20519;-68
2023/10/13 03:44:17;;;;;;;53.97;38.22;;;20.70;99.90;;;;;;5032140;28;20394;-69
2023/10/13 03:47:26;;;;;;;61.45;41.03;;;20.70;99.90;;;;;;5032169;28;20072;-69
2023/10/13 03:50:31;;;;;;;62.70;40.40;;;20.70;99.90;;;;;;5032256;28;20052;-69
2023/10/13 03:53:52;;;;;;;59.97;40.78;;;20.60;99.90;;;;;;5032253;28;20044;-69
2023/10/13 03:56:56;;;;;;;66.18;41.60;;;20.60;99.90;;;;;;5031950;28;20044;-69
2023/10/13 04:00:08;;;;;;;66.13;41.60;;;20.40;99.90;;;;;;5031896;28;20409;-68
2023/10/13 04:03:17;;;;;;;56.90;41.63;;;20.40;99.90;;;;;;5031620;28;20045;-68
2023/10/13 04:06:43;;;;;;;60.60;41.83;;;20.50;99.90;;;;;;5031869;28;20417;-69
2023/10/13 04:19:23;;;;;;;66.05;42.17;;;20.50;99.90;;;;;;5031641;28;20104;-69
2023/10/13 04:28:56;;;;;;;66.97;40.97;;;20.50;99.90;;;;;;5031518;28;20037;-69
2023/10/13 04:32:00;;;;;;;65.78;41.65;;;20.50;99.90;;;;;;5030274;28;20056;-69
2023/10/13 04:38:20;;;;;;;61.95;41.92;;;22.70;99.90;;;;;;5031418;28;20393;-69
2023/10/13 04:41:31;;;;;;;62.53;39.97;;;20.40;99.90;;;;;;5031407;28;20052;-69
2023/10/13 04:47:57;;;;;;;65.70;42.85;;;20.40;99.90;;;;;;5031096;28;20053;-69
2023/10/13 04:54:45;;;;;;;70.85;41.42;;;20.30;99.90;;;;;;5030843;28;20049;-69
2023/10/13 04:58:14;;;;;;;70.10;42.25;;;20.10;99.90;;;;;;5031001;28;20052;-69
2023/10/13 05:04:38;;;;;;;69.90;41.85;;;20.10;99.90;;;;;;5031457;28;20048;-69
2023/10/13 05:44:37;;;;;;;71.60;45.78;;;20.00;99.90;;;;;;5030832;28;20500;-69
2023/10/13 05:48:41;;;;;;;75.75;41.88;;;20.90;99.90;;;;;;5034163;28;20148;-68
2023/10/13 05:51:58;;;;;;;67.95;40.45;;;20.60;99.90;;;;;;5033866;28;20056;-68
2023/10/13 06:28:49;;;;;;;76.93;47.60;;;20.60;99.90;;;;;;5033351;28;20148;-68
2023/10/13 06:31:57;;;;;;;86.45;49.22;;;20.70;99.90;;;;;;5032662;28;20225;-68
2023/10/13 06:35:06;;;;;;;77.88;48.17;;;20.70;99.90;;;;;;5033002;28;20060;-68
2023/10/13 06:38:20;;;;;;;72.15;47.53;;;20.80;99.90;;;;;;5033517;28;20091;-68
2023/10/13 06:41:30;;;;;;;76.25;46.50;;;20.90;99.90;;;;;;5032488;28;20167;-69
2023/10/13 06:44:34;;;;;;;83.10;48.97;;;20.80;99.90;;;;;;5033001;28;20623;-67
2023/10/13 06:47:44;;;;;;;73.88;48.70;;;20.90;99.90;;;;;;5032732;28;20060;-68
2023/10/13 06:50:49;;;;;;;61.33;43.72;;;20.80;99.90;;;;;;5032794;28;20040;-68
2023/10/13 06:53:56;;;;;;;72.32;46.67;;;20.90;99.90;;;;;;5032846;28;20061;-68
2023/10/13 06:57:03;;;;;;;82.57;48.40;;;21.00;99.90;;;;;;5032053;28;20382;-68
2023/10/13 07:00:11;;;;;;;107.75;50.85;;;21.00;99.90;;;;;;5032452;28;20048;-68
2023/10/13 07:03:18;;;;;;;80.07;49.78;;;21.00;99.90;;;;;;5032862;28;20393;-68
2023/10/13 07:06:22;;;;;;;81.45;51.25;;;21.10;99.90;;;;;;5032673;28;20049;-68
2023/10/13 07:12:49;;;;;;;85.53;55.05;;;21.20;99.90;;;;;;5032237;28;20107;-68
2023/10/13 07:15:59;;;;;;;82.13;52.13;;;21.20;99.90;;;;;;5032829;28;20052;-68
2023/10/13 07:19:05;;;;;;;84.93;55.30;;;21.30;99.90;;;;;;5032597;28;20057;-67
2023/10/13 07:22:21;;;;;;;75.80;54.83;;;21.30;99.90;;;;;;5032350;28;20393;-67
2023/10/13 07:25:26;;;;;;;84.53;54.30;;;21.40;99.90;;;;;;5032444;28;20056;-68
2023/10/13 07:28:31;;;;;;;82.35;54.05;;;21.40;99.90;;;;;;5032283;28;20654;-68
2023/10/13 07:31:34;;;;;;;81.93;52.22;;;21.30;99.90;;;;;;5031660;28;20535;-68
2023/10/13 07:34:39;;;;;;;74.80;48.03;;;21.40;99.90;;;;;;5031887;28;20484;-67
2023/10/13 07:37:43;;;;;;;70.38;45.40;;;21.90;99.90;;;;;;5032115;28;20105;-68
2023/10/13 07:40:53;;;;;;;82.93;51.67;;;21.50;99.90;;;;;;5031028;28;20044;-68
2023/10/13 07:43:59;;;;;;;75.65;46.90;;;21.50;99.90;;;;;;5031664;28;20504;-68
2023/10/13 07:47:04;;;;;;;51.90;37.42;;;21.60;99.90;;;;;;5031722;28;20037;-68
2023/10/13 07:50:09;;;;;;;48.13;33.95;;;21.70;99.90;;;;;;5031871;28;20104;-68
2023/10/13 07:53:22;;;;;;;67.75;43.88;;;21.80;99.90;;;;;;5031557;28;20052;-68
2023/10/13 07:56:30;;;;;;;65.38;40.88;;;21.90;99.90;;;;;;5031739;28;20048;-68
2023/10/13 07:59:47;;;;;;;55.78;35.85;;;22.00;99.90;;;;;;5031960;28;20048;-69
2023/10/13 08:03:26;;;;;;;69.20;41.45;;;22.10;99.90;;;;;;5031516;28;20492;-69
2023/10/13 08:06:30;;;;;;;57.28;38.42;;;22.20;99.90;;;;;;5031216;28;20048;-69
2023/10/13 08:09:40;;;;;;;54.47;36.15;;;22.30;99.90;;;;;;5031483;28;20049;-69
2023/10/13 08:12:45;;;;;;;42.70;30.85;;;22.40;99.90;;;;;;5031134;28;20446;-69
2023/10/13 08:15:53;;;;;;;44.30;29.10;;;22.50;99.90;;;;;;5031290;28;20040;-69
2023/10/13 08:18:57;;;;;;;51.92;32.88;;;22.60;99.90;;;;;;5031524;28;20052;-68
2023/10/13 08:22:23;;;;;;;49.15;33.05;;;22.70;99.90;;;;;;5031524;28;20057;-67
2023/10/13 08:35:34;;;;;;;43.42;30.80;;;22.90;99.90;;;;;;5030917;28;20144;-68
2023/10/13 08:38:50;;;;;;;72.95;40.17;;;22.90;99.90;;;;;;5031099;28;20091;-68
2023/10/13 08:42:11;;;;;;;50.00;34.63;;;23.00;99.90;;;;;;5031134;28;20040;-68
2023/10/13 08:48:32;;;;;;;52.85;33.22;;;23.10;99.90;;;;;;5030385;28;20040;-69
2023/10/13 08:51:43;;;;;;;49.13;30.85;;;23.20;99.90;;;;;;5030373;28;20060;-68
2023/10/13 08:55:03;;;;;;;35.30;25.33;;;23.20;99.90;;;;;;5030872;28;20061;-68
2023/10/13 08:58:13;;;;;;;38.67;27.25;;;23.40;99.90;;;;;;5030488;28;20073;-68
2023/10/13 09:04:59;;;;;;;38.03;25.00;;;23.80;99.90;;;;;;5022797;28;20052;-69
2023/10/13 09:08:08;;;;;;;36.65;26.13;;;23.80;99.90;;;;;;5030841;28;20049;-69
2023/10/13 09:11:13;;;;;;;38.35;24.35;;;24.10;99.70;;;;;;5030467;28;20045;-69
2023/10/13 09:14:33;;;;;;;30.65;21.30;;;24.50;99.30;;;;;;5030569;28;20096;-68
2023/10/13 09:18:12;;;;;;;36.55;24.58;;;24.90;98.30;;;;;;5030439;28;20056;-68
2023/10/13 09:24:43;;;;;;;31.20;22.67;;;25.00;97.90;;;;;;5034700;28;20040;-69
2023/10/13 09:27:51;;;;;;;27.52;20.90;;;25.00;97.50;;;;;;5034216;28;20088;-69
2023/10/13 09:30:56;;;;;;;29.25;20.83;;;24.80;97.10;;;;;;5034166;28;20040;-69
2023/10/13 09:34:02;;;;;;;33.75;21.88;;;24.90;97.20;;;;;;5034435;28;20057;-68
2023/10/13 09:37:06;;;;;;;27.45;20.85;;;24.80;97.00;;;;;;5033614;28;20049;-68
2023/10/13 09:40:25;;;;;;;30.83;21.45;;;24.80;96.80;;;;;;5034375;28;20049;-69
2023/10/13 09:43:30;;;;;;;28.77;21.35;;;24.80;96.80;;;;;;5034221;28;20417;-68
2023/10/13 09:46:41;;;;;;;33.75;23.73;;;24.80;96.80;;;;;;5034331;28;20056;-68
2023/10/13 09:49:45;;;;;;;33.95;22.10;;;24.80;96.40;;;;;;5033744;28;20124;-68
2023/10/13 09:52:52;;;;;;;28.60;21.52;;;24.80;96.30;;;;;;5033658;28;20053;-69
2023/10/13 09:56:01;;;;;;;34.53;22.67;;;24.80;96.30;;;;;;5033948;28;20056;-69
2023/10/13 09:59:12;;;;;;;28.38;20.20;;;25.00;96.20;;;;;;5034109;28;20461;-69
2023/10/13 10:02:35;;;;;;;21.98;18.45;;;25.00;96.20;;;;;;5033700;28;20044;-69
2023/10/13 10:05:39;;;;;;;26.25;20.00;;;25.00;96.30;;;;;;5033757;28;20044;-69
2023/10/13 10:08:50;;;;;;;25.08;18.10;;;25.00;96.30;;;;;;5033782;28;20041;-68
2023/10/13 10:12:28;;;;;;;22.33;17.83;;;25.30;96.20;;;;;;5033229;28;20056;-68
2023/10/13 10:15:43;;;;;;;25.40;18.20;;;25.50;96.30;;;;;;5029217;28;20048;-69
2023/10/13 10:19:01;;;;;;;27.42;18.23;;;25.90;96.10;;;;;;5033443;28;20100;-69
2023/10/13 10:22:16;;;;;;;28.42;18.23;;;26.20;95.50;;;;;;5033529;28;20053;-69
2023/10/13 10:25:35;;;;;;;31.15;21.02;;;26.60;94.40;;;;;;5033461;28;20048;-68
2023/10/13 10:28:41;;;;;;;34.55;24.25;;;26.60;94.50;;;;;;5033291;28;20060;-69
2023/10/13 10:31:45;;;;;;;45.05;29.38;;;26.60;93.40;;;;;;5032921;28;20516;-69
2023/10/13 10:34:50;;;;;;;37.85;24.60;;;26.70;93.60;;;;;;5033212;28;20060;-69
2023/10/13 10:38:01;;;;;;;47.90;34.33;;;26.60;93.40;;;;;;5033476;28;20547;-69
2023/10/13 10:41:07;;;;;;;39.90;24.67;;;26.60;93.20;;;;;;5033289;28;20048;-69
2023/10/13 10:44:25;;;;;;;32.50;20.65;;;26.60;93.40;;;;;;5033204;28;20048;-69
2023/10/13 10:47:36;;;;;;;27.48;19.55;;;26.60;93.30;;;;;;5033275;28;20044;-69
2023/10/13 10:50:41;;;;;;;26.52;20.08;;;26.60;93.50;;;;;;5032847;28;20678;-69
2023/10/13 10:53:45;;;;;;;30.90;21.60;;;26.70;93.60;;;;;;5031916;28;20421;-69
2023/10/13 10:56:52;;;;;;;29.38;22.85;;;26.70;93.70;;;;;;5032920;28;20044;-68
2023/10/13 11:00:10;;;;;;;33.63;22.83;;;26.40;93.10;;;;;;5031558;28;20064;-68
2023/10/13 11:03:14;;;;;;;41.05;24.73;;;26.70;93.30;;;;;;5032468;28;20056;-68
2023/10/13 11:06:20;;;;;;;43.63;24.75;;;26.60;93.10;;;;;;5033617;28;20072;-68
2023/10/13 11:12:35;;;;;;;38.20;24.00;;;26.30;92.80;;;;;;5032263;28;20052;-69
2023/10/13 11:15:46;;;;;;;39.50;23.85;;;26.30;93.10;;;;;;5032612;28;20049;-69
2023/10/13 11:19:00;;;;;;;;;;;26.40;93.20;;;;;;5032364;28;20508;-69
2023/10/13 11:22:32;;;;;;;27.58;20.35;;;26.30;92.90;;;;;;5032074;28;19913;-69
2023/10/13 11:25:37;;;;;;;29.75;19.13;;;26.30;93.10;;;;;;5031040;28;20500;-68
2023/10/13 11:28:50;;;;;;;24.77;18.77;;;26.40;93.40;;;;;;5031205;28;20393;-69
2023/10/13 11:31:58;;;;;;;28.48;19.92;;;26.40;93.50;;;;;;5032039;28;20056;-69
2023/10/13 11:35:09;;;;;;;23.88;19.08;;;26.40;93.30;;;;;;5032117;28;20048;-69
2023/10/13 11:38:15;;;;;;;49.50;24.27;;;26.40;93.30;;;;;;5032389;28;20040;-70
2023/10/13 11:41:19;;;;;;;25.23;19.15;;;26.50;93.40;;;;;;5031545;28;20052;-70
2023/10/13 11:44:23;;;;;;;25.92;19.35;;;26.60;93.10;;;;;;5032206;28;20036;-70
2023/10/13 11:47:47;;;;;;;29.50;21.17;;;26.50;93.30;;;;;;5032192;28;20053;-69
2023/10/13 11:50:51;;;;;;;36.65;22.08;;;27.90;93.50;;;;;;5031995;28;20037;-69
2023/10/13 11:53:55;;;;;;;35.40;22.98;;;26.90;93.50;;;;;;5031735;28;20512;-68
2023/10/13 11:56:59;;;;;;;32.15;21.65;;;26.60;93.30;;;;;;5031652;28;20488;-69
2023/10/13 12:00:26;;;;;;;29.83;21.67;;;26.60;93.30;;;;;;5031672;28;20044;-69
2023/10/13 12:07:14;;;;;;;39.30;21.75;;;26.70;93.40;;;;;;5029607;28;20393;-67
2023/10/13 12:10:32;;;;;;;29.15;18.45;;;26.70;93.20;;;;;;5029987;28;20049;-69
2023/10/13 12:13:39;;;;;;;28.27;17.95;;;26.70;93.00;;;;;;5030126;28;20056;-68
2023/10/13 12:16:48;;;;;;;33.65;21.92;;;26.70;92.90;;;;;;5030524;28;20041;-69
2023/10/13 12:19:52;;;;;;;38.33;19.60;;;26.60;92.60;;;;;;5030449;28;20044;-68
2023/10/13 12:22:56;;;;;;;24.58;17.58;;;26.60;92.90;;;;;;5030790;28;20116;-67
2023/10/13 12:26:00;;;;;;;25.55;17.33;;;26.60;92.70;;;;;;5031527;28;20497;-68
2023/10/13 12:29:07;;;;;;;27.70;17.80;;;26.60;92.80;;;;;;5031420;28;20048;-67
2023/10/13 12:32:14;;;;;;;23.50;17.20;;;26.60;93.00;;;;;;5030942;28;20386;-67
2023/10/13 12:35:29;;;;;;;27.20;16.25;;;26.70;93.20;;;;;;5031097;28;20064;-67
2023/10/13 12:51:59;;;;;;;25.20;17.83;;;26.60;93.10;;;;;;5030687;28;20041;-66
2023/10/13 12:55:06;;;;;;;28.92;19.55;;;26.50;93.30;;;;;;5030501;28;20048;-68
2023/10/13 12:58:10;;;;;;;22.20;16.77;;;26.50;93.50;;;;;;5029957;28;20501;-67
2023/10/13 13:01:14;;;;;;;23.92;17.58;;;26.60;93.60;;;;;;5031010;28;20064;-67
2023/10/13 13:04:20;;;;;;;28.73;18.73;;;26.50;93.70;;;;;;5030726;28;20048;-68
2023/10/13 13:07:29;;;;;;;26.65;18.65;;;26.50;93.80;;;;;;5030640;28;20396;-68
2023/10/13 13:10:36;;;;;;;42.85;21.30;;;26.60;93.70;;;;;;5030831;28;20044;-67
2023/10/13 13:13:40;;;;;;;36.42;20.95;;;26.50;94.00;;;;;;5030322;28;20048;-67
2023/10/13 13:16:48;;;;;;;25.33;17.92;;;26.50;94.30;;;;;;5030550;28;20052;-68
2023/10/13 13:19:51;;;;;;;33.80;19.08;;;26.50;94.30;;;;;;5030735;28;20052;-68
2023/10/13 13:23:02;;;;;;;25.88;19.45;;;26.40;94.40;;;;;;5030601;28;20039;-69
2023/10/13 13:26:15;;;;;;;36.20;20.60;;;26.40;94.40;;;;;;5030667;28;20052;-67
2023/10/13 13:29:19;;;;;;;33.85;20.27;;;26.40;94.70;;;;;;5030409;28;20040;-67
2023/10/13 13:32:28;;;;;;;24.00;17.48;;;26.40;95.10;;;;;;5030236;28;20053;-71
2023/10/13 13:35:34;;;;;;;44.45;23.92;;;26.30;94.90;;;;;;5030403;28;20072;-72
2023/10/13 13:38:40;;;;;;;30.77;20.17;;;26.30;95.20;;;;;;5030023;28;20052;-72
2023/10/13 13:41:44;;;;;;;35.03;21.13;;;26.20;95.40;;;;;;5030286;28;20057;-72
2023/10/13 13:44:47;;;;;;;32.13;21.25;;;26.20;95.70;;;;;;5030143;28;20049;-73
2023/10/13 13:47:54;;;;;;;26.58;19.73;;;26.10;95.80;;;;;;5029432;28;20048;-72
2023/10/13 13:51:05;;;;;;;42.30;24.25;;;26.10;96.00;;;;;;5030298;28;20048;-72
2023/10/13 13:54:09;;;;;;;;;;;26.10;96.30;;;;;;5030619;28;20056;-72
2023/10/13 13:57:13;;;;;;;26.67;17.85;;;26.00;96.40;;;;;;5030281;28;19909;-72
2023/10/13 14:00:25;;;;;;;27.08;19.77;;;26.00;96.50;;;;;;5030236;28;20052;-72
2023/10/13 14:03:32;;;;;;;29.15;18.20;;;26.80;97.00;;;;;;5030053;28;20040;-72
2023/10/13 14:06:37;;;;;;;20.95;16.95;;;25.90;96.70;;;;;;5033891;28;20064;-72
2023/10/13 14:09:43;;;;;;;40.17;19.15;;;25.90;96.80;;;;;;5033809;28;20045;-72
2023/10/13 14:12:47;;;;;;;33.10;18.77;;;25.90;96.80;;;;;;5033211;28;20056;-72
2023/10/13 14:15:56;;;;;;;25.13;17.33;;;25.90;97.00;;;;;;5021178;28;20033;-72
2023/10/13 14:19:07;;;;;;;24.80;16.73;;;25.80;97.00;;;;;;5033226;28;20052;-71
2023/10/13 14:22:12;;;;;;;;;;;25.70;96.90;;;;;;5033917;28;20057;-72
2023/10/13 14:25:16;;;;;;;25.75;15.18;;;25.70;97.10;;;;;;5031762;28;19909;-67
2023/10/13 14:28:20;;;;;;;21.60;14.68;;;25.70;97.00;;;;;;5031799;28;20481;-70
2023/10/13 14:31:24;;;;;;;17.23;13.10;;;25.70;97.20;;;;;;5032497;28;20048;-68
2023/10/13 14:34:28;;;;;;;26.67;15.65;;;25.70;97.00;;;;;;5033187;28;20125;-68
2023/10/13 14:37:32;;;;;;;21.65;15.20;;;25.70;96.90;;;;;;5033266;28;20045;-68
2023/10/13 14:40:36;;;;;;;21.35;14.75;;;25.50;96.90;;;;;;5033237;28;20412;-71
2023/10/13 14:43:40;;;;;;;20.65;14.60;;;25.50;97.20;;;;;;5033184;28;20397;-73
2023/10/13 14:46:44;;;;;;;26.65;16.23;;;25.50;97.20;;;;;;5032354;28;20044;-73
2023/10/13 14:49:49;;;;;;;23.50;14.77;;;25.40;96.90;;;;;;5030765;28;20053;-74
2023/10/13 14:52:52;;;;;;;22.73;15.65;;;25.40;97.20;;;;;;5031893;28;20499;-73
2023/10/13 14:56:01;;;;;;;24.92;14.63;;;25.40;97.00;;;;;;5033009;28;20056;-72
2023/10/13 14:59:05;;;;;;;21.05;14.82;;;25.30;97.20;;;;;;5032711;28;20060;-73
2023/10/13 15:02:09;;;;;;;26.77;15.88;;;25.20;96.90;;;;;;5032505;28;20406;-73
2023/10/13 15:05:16;;;;;;;23.27;15.75;;;25.30;97.00;;;;;;5032635;28;20049;-73
2023/10/13 15:08:20;;;;;;;21.40;15.32;;;25.30;97.00;;;;;;5032418;28;20048;-73
2023/10/13 15:11:26;;;;;;;21.42;14.35;;;25.30;97.30;;;;;;5032382;28;20052;-74
2023/10/13 15:14:33;;;;;;;27.27;15.65;;;25.20;97.20;;;;;;5032233;28;20060;-72
2023/10/13 15:17:39;;;;;;;25.15;13.65;;;25.30;97.40;;;;;;5031104;28;20036;-73
2023/10/13 15:20:43;;;;;;;24.70;15.25;;;25.30;97.60;;;;;;5032124;28;20048;-73
2023/10/13 15:23:48;;;;;;;23.48;13.75;;;25.20;97.70;;;;;;5032482;28;20052;-74
2023/10/13 15:26:57;;;;;;;24.17;15.10;;;25.20;97.60;;;;;;5031371;28;20041;-73
2023/10/13 15:30:04;;;;;;;26.40;15.20;;;25.10;97.80;;;;;;5031985;28;20044;-67
2023/10/13 15:33:08;;;;;;;22.20;14.15;;;24.90;97.60;;;;;;5032277;28;20060;-68
2023/10/13 15:36:12;;;;;;;25.73;14.50;;;25.00;97.50;;;;;;5031947;28;20044;-67
2023/10/13 15:39:16;;;;;;;28.70;14.70;;;25.10;97.80;;;;;;5032240;28;20052;-69
2023/10/13 15:42:21;;;;;;;24.42;14.73;;;25.00;97.60;;;;;;5032204;28;20045;-68
2023/10/13 15:45:32;;;;;;;22.58;14.10;;;24.90;97.80;;;;;;5032040;28;20044;-68
2023/10/13 15:48:36;;;;;;;27.98;14.65;;;25.00;97.70;;;;;;5031022;28;20052;-68
2023/10/13 15:51:40;;;;;;;25.58;15.80;;;24.90;97.70;;;;;;5031407;28;20045;-67
2023/10/13 15:54:44;;;;;;;23.75;13.75;;;24.90;97.60;;;;;;5031737;28;20417;-67
2023/10/13 15:57:52;;;;;;;22.85;12.80;;;24.90;97.80;;;;;;5031847;28;20049;-67
2023/10/13 16:00:56;;;;;;;18.15;12.75;;;24.80;97.90;;;;;;5031086;28;20120;-67
2023/10/13 16:04:02;;;;;;;20.95;12.55;;;24.80;98.00;;;;;;5031364;28;20056;-70
2023/10/13 16:07:05;;;;;;;17.52;11.93;;;24.80;98.10;;;;;;5031445;28;20056;-70
2023/10/13 16:10:12;;;;;;;23.83;13.20;;;24.80;98.10;;;;;;5031424;28;20048;-68
2023/10/13 16:13:19;;;;;;;19.58;12.40;;;24.70;98.20;;;;;;5031234;28;20064;-68
2023/10/13 16:16:24;;;;;;;26.67;13.85;;;24.60;98.40;;;;;;5031556;28;20140;-67
2023/10/13 16:19:29;;;;;;;22.65;12.55;;;24.70;98.50;;;;;;5031564;28;20491;-67
2023/10/13 16:22:33;;;;;;;23.48;13.30;;;24.60;98.70;;;;;;5031191;28;20045;-67
2023/10/13 16:25:37;;;;;;;22.45;15.05;;;24.60;98.70;;;;;;5031465;28;20045;-69
2023/10/13 16:28:41;;;;;;;22.35;12.93;;;24.50;98.80;;;;;;5031171;28;20052;-67
2023/10/13 16:31:48;;;;;;;25.30;14.10;;;24.50;99.00;;;;;;5031246;28;20123;-69
2023/10/13 16:34:52;;;;;;;22.17;12.57;;;24.50;98.80;;;;;;5030904;28;20650;-68
2023/10/13 16:37:57;;;;;;;23.40;13.05;;;24.40;99.10;;;;;;5031137;28;20048;-68
2023/10/13 16:41:05;;;;;;;20.48;13.38;;;24.40;99.10;;;;;;5031134;28;20044;-68
2023/10/13 16:44:09;;;;;;;45.20;13.90;;;23.40;98.90;;;;;;5030830;28;20036;-69
2023/10/13 16:47:13;;;;;;;25.33;13.77;;;24.30;99.20;;;;;;5030857;28;20044;-68
2023/10/13 16:50:18;;;;;;;27.10;13.10;;;24.30;99.40;;;;;;5030517;28;20045;-69
2023/10/13 16:53:22;;;;;;;28.05;14.40;;;24.20;99.50;;;;;;5029860;28;20048;-67
2023/10/13 16:56:27;;;;;;;23.13;13.48;;;24.20;99.70;;;;;;5030574;28;20044;-67
2023/10/13 16:59:30;;;;;;;29.35;14.75;;;24.20;99.60;;;;;;5030540;28;20064;-66
2023/10/13 17:02:34;;;;;;;27.63;14.02;;;24.10;99.80;;;;;;5030778;28;20045;-66
2023/10/13 17:05:42;;;;;;;25.65;13.70;;;24.10;99.90;;;;;;5030562;28;20397;-71
2023/10/13 17:08:47;;;;;;;20.80;14.45;;;24.00;99.90;;;;;;5030118;28;20060;-71
2023/10/13 17:11:51;;;;;;;28.58;14.40;;;24.00;99.90;;;;;;5029642;28;20040;-71
2023/10/13 17:14:57;;;;;;;21.33;13.60;;;24.00;99.90;;;;;;5030075;28;20060;-75
2023/10/13 17:18:05;;;;;;;20.67;13.05;;;24.20;99.90;;;;;;5030356;28;20496;-71
2023/10/13 17:21:21;;;;;;;25.65;13.55;;;24.00;99.90;;;;;;5030415;28;20113;-71
2023/10/13 17:24:27;;;;;;;26.30;13.60;;;24.00;99.90;;;;;;5030596;28;20044;-72
2023/10/13 17:27:36;;;;;;;30.67;14.77;;;24.00;99.90;;;;;;5030206;28;20064;-72
2023/10/13 17:30:45;;;;;;;26.20;14.65;;;24.00;99.90;;;;;;5030287;28;20037;-72
2023/10/13 17:33:49;;;;;;;29.75;14.48;;;24.00;99.90;;;;;;5030341;28;20048;-72
2023/10/13 17:36:55;;;;;;;22.55;14.65;;;23.90;99.90;;;;;;5030016;28;20045;-71
2023/10/13 17:40:00;;;;;;;26.77;14.10;;;23.90;99.90;;;;;;5031913;28;20041;-72
2023/10/13 17:43:04;;;;;;;21.95;13.75;;;23.50;99.90;;;;;;5034627;28;20056;-72
2023/10/13 17:46:11;;;;;;;22.20;13.13;;;23.90;99.90;;;;;;5034401;28;20045;-72
2023/10/13 17:49:15;;;;;;;29.95;14.52;;;23.90;99.90;;;;;;5033230;28;20040;-72
2023/10/13 17:52:18;;;;;;;20.30;12.88;;;23.90;99.90;;;;;;5034327;28;20044;-72
2023/10/13 17:55:22;;;;;;;24.80;13.23;;;23.90;99.90;;;;;;5034182;28;20048;-72
2023/10/13 17:58:26;;;;;;;20.90;14.15;;;23.90;99.90;;;;;;5033886;28;20040;-72
2023/10/13 18:01:33;;;;;;;25.35;13.43;;;23.90;99.90;;;;;;5034048;28;20044;-72
2023/10/13 18:04:37;;;;;;;19.88;13.98;;;23.90;99.90;;;;;;5034209;28;20072;-72
2023/10/13 18:07:42;;;;;;;31.88;15.10;;;23.90;99.90;;;;;;5033794;28;20113;-72
2023/10/13 18:10:52;;;;;;;30.42;15.13;;;23.90;99.80;;;;;;5033613;28;20048;-72
2023/10/13 18:13:57;;;;;;;25.23;15.15;;;23.90;99.80;;;;;;5033357;28;20068;-73
2023/10/13 18:17:02;;;;;;;19.13;13.10;;;23.80;99.90;;;;;;5033510;28;20056;-72
2023/10/13 18:20:19;;;;;;;19.63;13.65;;;23.80;99.90;;;;;;5033551;28;20056;-73
2023/10/13 18:23:22;;;;;;;29.83;15.57;;;23.80;99.90;;;;;;5033757;28;20056;-72